createdAt,value
2018-07-27T00:00:55.845Z,0
2018-07-27T00:02:04.989Z,0
2018-07-27T00:03:13.855Z,0
2018-07-27T00:04:22.731Z,0
2018-07-27T00:05:31.872Z,0
2018-07-27T00:06:40.735Z,0
2018-07-27T00:07:49.601Z,0
2018-07-27T00:08:58.467Z,0
2018-07-27T00:10:07.335Z,0
2018-07-27T00:11:16.199Z,0
2018-07-27T00:12:25.067Z,0
2018-07-27T00:13:34.481Z,0
2018-07-27T00:14:43.348Z,0
2018-07-27T00:15:52.216Z,0
2018-07-27T00:17:01.082Z,0
2018-07-27T00:18:10.049Z,0
2018-07-27T00:19:18.921Z,0
2018-07-27T00:20:27.791Z,0
2018-07-27T00:21:36.654Z,0
2018-07-27T00:22:45.521Z,0
2018-07-27T00:23:54.386Z,0
2018-07-27T00:25:03.252Z,0
2018-07-27T00:26:12.399Z,0
2018-07-27T00:27:21.263Z,0
2018-07-27T00:28:30.412Z,0
2018-07-27T00:29:39.563Z,0
2018-07-27T00:30:48.702Z,0
2018-07-27T00:31:57.567Z,0
2018-07-27T00:33:06.718Z,0
2018-07-27T00:34:15.587Z,0
2018-07-27T00:35:27.607Z,0
2018-07-27T00:36:36.759Z,0
2018-07-27T00:37:45.622Z,0
2018-07-27T00:38:54.490Z,0
2018-07-27T00:40:03.354Z,0
2018-07-27T00:41:12.220Z,0
2018-07-27T00:42:21.088Z,0
2018-07-27T00:43:29.958Z,0
2018-07-27T00:44:38.823Z,0
2018-07-27T00:45:47.691Z,0
2018-07-27T00:46:56.832Z,0
2018-07-27T00:48:05.698Z,0
2018-07-27T00:49:14.569Z,0
2018-07-27T00:50:23.712Z,0
2018-07-27T00:51:32.580Z,0
2018-07-27T00:52:41.544Z,0
2018-07-27T00:53:50.413Z,0
2018-07-27T00:54:59.553Z,0
2018-07-27T00:56:08.422Z,0
2018-07-27T00:57:17.564Z,0
2018-07-27T00:58:26.430Z,0
2018-07-27T00:59:35.295Z,0
2018-07-27T01:00:44.163Z,0
2018-07-27T01:01:53.305Z,0
2018-07-27T01:03:02.445Z,0
2018-07-27T01:04:11.310Z,0
2018-07-27T01:05:20.452Z,0
2018-07-27T01:06:29.318Z,0
2018-07-27T01:07:38.182Z,0
2018-07-27T01:08:47.050Z,0
2018-07-27T01:09:55.916Z,0
2018-07-27T01:11:05.056Z,0
2018-07-27T01:12:13.923Z,0
2018-07-27T01:13:22.789Z,0
2018-07-27T01:14:31.654Z,0
2018-07-27T01:15:40.668Z,0
2018-07-27T01:16:49.535Z,0
2018-07-27T01:17:58.397Z,0
2018-07-27T01:19:07.264Z,0
2018-07-27T01:20:16.128Z,0
2018-07-27T01:21:24.992Z,0
2018-07-27T01:22:33.856Z,0
2018-07-27T01:23:42.722Z,0
2018-07-27T01:24:51.590Z,0
2018-07-27T01:26:00.455Z,0
2018-07-27T01:27:09.467Z,0
2018-07-27T01:28:18.333Z,0
2018-07-27T01:29:27.195Z,0
2018-07-27T01:30:36.061Z,0
2018-07-27T01:31:44.927Z,0
2018-07-27T01:32:54.698Z,0
2018-07-27T01:34:03.564Z,0
2018-07-27T01:35:12.435Z,0
2018-07-27T01:36:21.302Z,0
2018-07-27T01:37:30.173Z,0
2018-07-27T01:38:39.387Z,0
2018-07-27T01:39:48.256Z,0
2018-07-27T01:40:57.124Z,0
2018-07-27T01:42:05.986Z,0
2018-07-27T01:43:15.131Z,0
2018-07-27T01:44:24.100Z,0
2018-07-27T01:45:32.963Z,0
2018-07-27T01:46:41.829Z,0
2018-07-27T01:47:50.694Z,0
2018-07-27T01:48:59.559Z,0
2018-07-27T01:50:09.121Z,0
2018-07-27T01:51:17.985Z,0
2018-07-27T01:52:27.412Z,0
2018-07-27T01:53:36.276Z,0
2018-07-27T01:54:45.141Z,0
2018-07-27T01:55:54.154Z,0
2018-07-27T01:57:03.021Z,0
2018-07-27T01:58:11.890Z,0
2018-07-27T01:59:20.754Z,0
2018-07-27T02:00:29.624Z,0
2018-07-27T02:01:38.762Z,0
2018-07-27T02:02:47.625Z,0
2018-07-27T02:03:56.772Z,0
2018-07-27T02:05:05.644Z,0
2018-07-27T02:06:14.786Z,0
2018-07-27T02:07:23.750Z,0
2018-07-27T02:08:32.614Z,0
2018-07-27T02:09:41.480Z,0
2018-07-27T02:10:50.345Z,0
2018-07-27T02:11:59.212Z,0
2018-07-27T02:13:08.293Z,0
2018-07-27T02:14:17.370Z,0
2018-07-27T02:15:26.236Z,0
2018-07-27T02:16:35.378Z,0
2018-07-27T02:17:44.244Z,0
2018-07-27T02:18:53.256Z,0
2018-07-27T02:20:02.120Z,0
2018-07-27T02:21:10.986Z,0
2018-07-27T02:22:19.850Z,0
2018-07-27T02:23:28.740Z,0
2018-07-27T02:24:37.983Z,0
2018-07-27T02:25:47.133Z,0
2018-07-27T02:26:55.997Z,0
2018-07-27T02:28:05.142Z,0
2018-07-27T02:29:14.010Z,0
2018-07-27T02:30:22.879Z,0
2018-07-27T02:31:32.084Z,0
2018-07-27T02:32:40.952Z,0
2018-07-27T02:33:50.160Z,0
2018-07-27T02:34:59.571Z,0
2018-07-27T02:36:08.438Z,0
2018-07-27T02:37:17.304Z,0
2018-07-27T02:38:26.721Z,0
2018-07-27T02:39:35.587Z,0
2018-07-27T02:40:44.453Z,0
2018-07-27T02:41:53.958Z,0
2018-07-27T02:43:03.673Z,0
2018-07-27T02:44:13.084Z,0
2018-07-27T02:45:21.947Z,0
2018-07-27T02:46:30.814Z,0
2018-07-27T02:47:40.056Z,0
2018-07-27T02:48:48.921Z,0
2018-07-27T02:49:57.785Z,0
2018-07-27T02:51:06.925Z,0
2018-07-27T02:52:15.793Z,0
2018-07-27T02:53:25.322Z,0
2018-07-27T02:54:34.463Z,0
2018-07-27T02:55:43.604Z,0
2018-07-27T02:56:52.474Z,0
2018-07-27T02:58:01.892Z,0
2018-07-27T02:59:11.424Z,0
2018-07-27T03:00:20.843Z,0
2018-07-27T03:01:29.985Z,0
2018-07-27T03:02:38.851Z,0
2018-07-27T03:03:48.289Z,0
2018-07-27T03:04:57.782Z,0
2018-07-27T03:06:07.562Z,0
2018-07-27T03:07:16.709Z,0
2018-07-27T03:08:26.126Z,0
2018-07-27T03:09:35.335Z,0
2018-07-27T03:10:44.429Z,0
2018-07-27T03:11:53.296Z,0
2018-07-27T03:13:02.442Z,0
2018-07-27T03:14:11.572Z,0
2018-07-27T03:15:20.727Z,0
2018-07-27T03:16:29.964Z,0
2018-07-27T03:17:39.110Z,0
2018-07-27T03:18:48.537Z,0
2018-07-27T03:19:57.681Z,0
2018-07-27T03:21:07.377Z,0
2018-07-27T03:22:16.521Z,0
2018-07-27T03:23:25.945Z,0
2018-07-27T03:24:34.808Z,0
2018-07-27T03:25:43.671Z,0
2018-07-27T03:26:52.535Z,5
2018-07-27T03:28:01.673Z,5
2018-07-27T03:29:10.538Z,5
2018-07-27T03:30:19.688Z,5
2018-07-27T03:31:28.831Z,5
2018-07-27T03:32:37.695Z,5
2018-07-27T03:33:46.560Z,5
2018-07-27T03:34:55.703Z,10
2018-07-27T03:36:04.573Z,10
2018-07-27T03:37:13.441Z,10
2018-07-27T03:38:23.138Z,10
2018-07-27T03:39:32.353Z,10
2018-07-27T03:40:41.218Z,15
2018-07-27T03:41:50.087Z,15
2018-07-27T03:42:59.502Z,15
2018-07-27T03:44:08.366Z,15
2018-07-27T03:45:17.231Z,15
2018-07-27T03:46:26.101Z,20
2018-07-27T03:47:35.245Z,20
2018-07-27T03:48:44.109Z,20
2018-07-27T03:49:53.257Z,20
2018-07-27T03:51:02.825Z,25
2018-07-27T03:52:11.688Z,25
2018-07-27T03:53:20.553Z,25
2018-07-27T03:54:29.690Z,30
2018-07-27T03:55:38.554Z,30
2018-07-27T03:56:48.259Z,30
2018-07-27T03:57:57.119Z,30
2018-07-27T03:59:05.985Z,35
2018-07-27T04:00:14.857Z,35
2018-07-27T04:01:23.725Z,35
2018-07-27T04:02:32.967Z,40
2018-07-27T04:03:41.834Z,40
2018-07-27T04:04:50.983Z,40
2018-07-27T04:06:00.123Z,45
2018-07-27T04:07:08.986Z,45
2018-07-27T04:08:17.852Z,45
2018-07-27T04:09:26.714Z,50
2018-07-27T04:10:35.577Z,50
2018-07-27T04:11:44.442Z,50
2018-07-27T04:12:53.585Z,55
2018-07-27T04:14:02.737Z,55
2018-07-27T04:15:11.598Z,55
2018-07-27T04:16:20.460Z,60
2018-07-27T04:17:29.325Z,60
2018-07-27T04:18:38.189Z,60
2018-07-27T04:19:47.058Z,60
2018-07-27T04:20:56.291Z,65
2018-07-27T04:22:05.120Z,65
2018-07-27T04:23:13.984Z,65
2018-07-27T04:24:22.846Z,70
2018-07-27T04:25:32.095Z,70
2018-07-27T04:26:40.960Z,70
2018-07-27T04:27:50.103Z,70
2018-07-27T04:28:59.251Z,75
2018-07-27T04:30:08.116Z,75
2018-07-27T04:31:17.405Z,75
2018-07-27T04:32:26.272Z,80
2018-07-27T04:33:35.138Z,80
2018-07-27T04:34:44.003Z,80
2018-07-27T04:35:52.865Z,80
2018-07-27T04:37:01.879Z,85
2018-07-27T04:38:10.742Z,85
2018-07-27T04:39:19.606Z,85
2018-07-27T04:40:28.471Z,85
2018-07-27T04:41:37.336Z,90
2018-07-27T04:42:46.303Z,90
2018-07-27T04:43:55.166Z,90
2018-07-27T04:45:04.032Z,90
2018-07-27T04:46:12.898Z,95
2018-07-27T04:47:22.039Z,95
2018-07-27T04:48:31.180Z,95
2018-07-27T04:49:40.319Z,95
2018-07-27T04:50:49.184Z,95
2018-07-27T04:51:58.051Z,100
2018-07-27T04:53:06.914Z,100
2018-07-27T04:54:16.206Z,100
2018-07-27T04:55:25.068Z,100
2018-07-27T04:56:35.348Z,100
2018-07-27T04:57:44.637Z,105
2018-07-27T04:58:53.502Z,105
2018-07-27T05:00:02.520Z,105
2018-07-27T05:01:11.380Z,105
2018-07-27T05:02:20.525Z,105
2018-07-27T05:03:29.668Z,110
2018-07-27T05:04:38.551Z,110
2018-07-27T05:05:47.834Z,110
2018-07-27T05:06:56.701Z,110
2018-07-27T05:08:05.564Z,110
2018-07-27T05:09:14.710Z,115
2018-07-27T05:10:23.572Z,115
2018-07-27T05:11:32.589Z,115
2018-07-27T05:12:41.454Z,115
2018-07-27T05:13:50.319Z,115
2018-07-27T05:14:59.461Z,115
2018-07-27T05:16:08.604Z,115
2018-07-27T05:17:17.468Z,115
2018-07-27T05:18:26.742Z,115
2018-07-27T05:19:35.609Z,115
2018-07-27T05:20:44.473Z,115
2018-07-27T05:21:53.339Z,115
2018-07-27T05:23:02.352Z,120
2018-07-27T05:24:11.500Z,120
2018-07-27T05:25:20.638Z,120
2018-07-27T05:26:29.503Z,120
2018-07-27T05:27:38.369Z,120
2018-07-27T05:28:47.335Z,120
2018-07-27T05:29:56.201Z,120
2018-07-27T05:31:05.069Z,125
2018-07-27T05:32:13.934Z,130
2018-07-27T05:33:22.797Z,125
2018-07-27T05:34:32.161Z,125
2018-07-27T05:35:41.305Z,125
2018-07-27T05:36:50.169Z,125
2018-07-27T05:37:59.034Z,125
2018-07-27T05:39:07.899Z,130
2018-07-27T05:40:17.162Z,130
2018-07-27T05:41:26.029Z,130
2018-07-27T05:42:34.904Z,130
2018-07-27T05:43:44.048Z,130
2018-07-27T05:44:53.192Z,130
2018-07-27T05:46:02.058Z,130
2018-07-27T05:47:11.367Z,135
2018-07-27T05:48:20.457Z,135
2018-07-27T05:49:29.600Z,135
2018-07-27T05:50:38.468Z,135
2018-07-27T05:51:47.331Z,135
2018-07-27T05:52:56.566Z,135
2018-07-27T05:54:05.832Z,135
2018-07-27T05:55:14.700Z,135
2018-07-27T05:56:23.572Z,135
2018-07-27T05:57:32.436Z,135
2018-07-27T05:58:41.304Z,140
2018-07-27T05:59:50.176Z,140
2018-07-27T06:00:59.042Z,140
2018-07-27T06:02:10.435Z,140
2018-07-27T06:03:19.729Z,140
2018-07-27T06:04:29.150Z,140
2018-07-27T06:05:38.014Z,140
2018-07-27T06:06:46.880Z,140
2018-07-27T06:07:55.745Z,140
2018-07-27T06:09:04.613Z,140
2018-07-27T06:10:13.480Z,140
2018-07-27T06:11:23.058Z,150
2018-07-27T06:12:31.925Z,145
2018-07-27T06:13:40.789Z,145
2018-07-27T06:14:49.803Z,145
2018-07-27T06:15:58.675Z,145
2018-07-27T06:17:07.819Z,145
2018-07-27T06:18:16.725Z,145
2018-07-27T06:19:26.264Z,145
2018-07-27T06:20:35.482Z,145
2018-07-27T06:21:44.348Z,145
2018-07-27T06:22:53.212Z,145
2018-07-27T06:24:02.110Z,145
2018-07-27T06:25:10.948Z,145
2018-07-27T06:26:19.916Z,145
2018-07-27T06:27:28.783Z,150
2018-07-27T06:28:37.969Z,150
2018-07-27T06:29:46.847Z,150
2018-07-27T06:30:55.998Z,150
2018-07-27T06:32:04.864Z,150
2018-07-27T06:33:13.733Z,150
2018-07-27T06:34:22.601Z,150
2018-07-27T06:35:31.467Z,150
2018-07-27T06:36:40.337Z,150
2018-07-27T06:37:49.201Z,150
2018-07-27T06:38:58.076Z,150
2018-07-27T06:40:06.931Z,150
2018-07-27T06:41:16.077Z,150
2018-07-27T06:42:25.221Z,150
2018-07-27T06:43:34.427Z,150
2018-07-27T06:44:43.855Z,155
2018-07-27T06:45:52.722Z,155
2018-07-27T06:47:02.013Z,155
2018-07-27T06:48:10.883Z,155
2018-07-27T06:49:19.752Z,155
2018-07-27T06:50:28.615Z,155
2018-07-27T06:51:37.480Z,155
2018-07-27T06:52:46.345Z,155
2018-07-27T06:53:55.213Z,155
2018-07-27T06:55:04.077Z,155
2018-07-27T06:56:13.215Z,155
2018-07-27T06:57:22.187Z,155
2018-07-27T06:58:31.055Z,155
2018-07-27T06:59:39.921Z,160
2018-07-27T07:00:49.064Z,160
2018-07-27T07:01:57.929Z,160
2018-07-27T07:03:06.794Z,160
2018-07-27T07:04:15.661Z,160
2018-07-27T07:05:24.802Z,160
2018-07-27T07:06:33.668Z,160
2018-07-27T07:07:42.532Z,160
2018-07-27T07:08:51.399Z,160
2018-07-27T07:10:00.543Z,160
2018-07-27T07:11:09.408Z,160
2018-07-27T07:12:18.294Z,160
2018-07-27T07:13:27.172Z,160
2018-07-27T07:14:36.049Z,160
2018-07-27T07:15:44.909Z,160
2018-07-27T07:16:53.780Z,165
2018-07-27T07:18:02.921Z,160
2018-07-27T07:19:11.788Z,160
2018-07-27T07:20:20.933Z,160
2018-07-27T07:21:29.795Z,160
2018-07-27T07:22:38.947Z,165
2018-07-27T07:23:47.826Z,165
2018-07-27T07:24:56.690Z,165
2018-07-27T07:26:05.796Z,165
2018-07-27T07:27:14.702Z,165
2018-07-27T07:28:23.576Z,160
2018-07-27T07:29:32.444Z,160
2018-07-27T07:30:41.312Z,160
2018-07-27T07:31:50.180Z,160
2018-07-27T07:32:59.325Z,160
2018-07-27T07:34:08.754Z,160
2018-07-27T07:35:17.618Z,160
2018-07-27T07:36:26.485Z,160
2018-07-27T07:37:35.629Z,160
2018-07-27T07:38:44.495Z,160
2018-07-27T07:39:53.638Z,170
2018-07-27T07:41:02.783Z,165
2018-07-27T07:42:11.928Z,165
2018-07-27T07:43:20.796Z,165
2018-07-27T07:44:29.663Z,165
2018-07-27T07:45:38.811Z,165
2018-07-27T07:46:47.681Z,165
2018-07-27T07:47:56.547Z,165
2018-07-27T07:49:05.414Z,165
2018-07-27T07:50:14.556Z,165
2018-07-27T07:51:23.425Z,165
2018-07-27T07:52:32.573Z,165
2018-07-27T07:53:41.716Z,165
2018-07-27T07:54:50.583Z,165
2018-07-27T07:55:59.451Z,165
2018-07-27T07:57:08.327Z,165
2018-07-27T07:58:17.191Z,170
2018-07-27T07:59:26.058Z,170
2018-07-27T08:00:34.923Z,170
2018-07-27T08:01:43.790Z,170
2018-07-27T08:02:52.938Z,170
2018-07-27T08:04:01.811Z,170
2018-07-27T08:05:10.677Z,170
2018-07-27T08:06:19.543Z,170
2018-07-27T08:07:28.685Z,170
2018-07-27T08:08:37.552Z,170
2018-07-27T08:09:46.697Z,170
2018-07-27T08:10:55.568Z,170
2018-07-27T08:12:04.444Z,170
2018-07-27T08:13:13.315Z,170
2018-07-27T08:14:22.283Z,170
2018-07-27T08:15:31.427Z,170
2018-07-27T08:16:40.581Z,170
2018-07-27T08:17:49.449Z,170
2018-07-27T08:18:58.312Z,170
2018-07-27T08:20:07.179Z,170
2018-07-27T08:21:16.050Z,175
2018-07-27T08:22:24.918Z,175
2018-07-27T08:23:33.787Z,175
2018-07-27T08:24:42.667Z,175
2018-07-27T08:25:51.583Z,175
2018-07-27T08:27:00.405Z,175
2018-07-27T08:28:09.277Z,175
2018-07-27T08:29:18.143Z,175
2018-07-27T08:30:27.011Z,175
2018-07-27T08:31:35.976Z,175
2018-07-27T08:32:44.842Z,175
2018-07-27T08:33:53.732Z,175
2018-07-27T08:35:02.757Z,175
2018-07-27T08:36:11.631Z,180
2018-07-27T08:37:20.500Z,180
2018-07-27T08:38:29.384Z,180
2018-07-27T08:39:38.901Z,180
2018-07-27T08:40:47.766Z,180
2018-07-27T08:41:56.631Z,180
2018-07-27T08:43:05.501Z,180
2018-07-27T08:44:14.644Z,180
2018-07-27T08:49:42.418Z,180
2018-07-27T08:50:51.300Z,180
2018-07-27T08:52:00.965Z,185
2018-07-27T08:53:09.835Z,180
2018-07-27T08:54:18.705Z,180
2018-07-27T08:55:27.720Z,180
2018-07-27T08:56:36.591Z,180
2018-07-27T08:57:45.458Z,180
2018-07-27T08:58:54.604Z,180
2018-07-27T09:00:03.482Z,180
2018-07-27T09:01:12.453Z,180
2018-07-27T09:02:21.318Z,180
2018-07-27T09:03:30.185Z,180
2018-07-27T09:04:39.348Z,180
2018-07-27T09:05:48.223Z,180
2018-07-27T09:06:57.450Z,175
2018-07-27T09:08:06.609Z,180
2018-07-27T09:09:15.489Z,180
2018-07-27T09:10:24.388Z,180
2018-07-27T09:11:33.249Z,180
2018-07-27T09:12:42.278Z,180
2018-07-27T09:13:51.165Z,180
2018-07-27T09:15:00.043Z,180
2018-07-27T09:16:08.909Z,180
2018-07-27T09:17:18.085Z,180
2018-07-27T09:18:27.550Z,180
2018-07-27T09:19:36.419Z,180
2018-07-27T09:20:45.293Z,180
2018-07-27T09:21:54.161Z,180
2018-07-27T09:23:03.030Z,180
2018-07-27T09:24:12.257Z,180
2018-07-27T09:25:21.638Z,180
2018-07-27T09:26:30.356Z,180
2018-07-27T09:27:39.502Z,180
2018-07-27T09:28:48.369Z,180
2018-07-27T09:29:57.599Z,180
2018-07-27T09:31:06.466Z,180
2018-07-27T09:32:15.335Z,185
2018-07-27T09:33:24.206Z,185
2018-07-27T09:34:33.073Z,185
2018-07-27T09:35:42.096Z,185
2018-07-27T09:36:51.239Z,185
2018-07-27T09:38:00.106Z,185
2018-07-27T09:39:08.973Z,185
2018-07-27T09:40:17.840Z,185
2018-07-27T09:41:26.707Z,185
2018-07-27T09:42:36.136Z,185
2018-07-27T09:43:45.006Z,185
2018-07-27T09:44:53.873Z,185
2018-07-27T09:46:02.741Z,185
2018-07-27T09:47:11.609Z,185
2018-07-27T09:48:20.482Z,185
2018-07-27T09:49:29.639Z,185
2018-07-27T09:50:38.504Z,185
2018-07-27T09:51:47.771Z,185
2018-07-27T09:52:56.639Z,185
2018-07-27T09:54:05.506Z,190
2018-07-27T09:55:14.379Z,190
2018-07-27T09:56:23.245Z,190
2018-07-27T09:57:32.133Z,190
2018-07-27T09:58:41.500Z,190
2018-07-27T09:59:50.378Z,190
2018-07-27T10:00:59.250Z,190
2018-07-27T10:02:08.953Z,190
2018-07-27T10:03:18.092Z,190
2018-07-27T10:04:27.336Z,190
2018-07-27T10:05:36.203Z,200
2018-07-27T10:06:45.074Z,200
2018-07-27T10:07:54.218Z,200
2018-07-27T10:09:03.366Z,205
2018-07-27T10:10:12.409Z,205
2018-07-27T10:11:21.250Z,205
2018-07-27T10:12:30.117Z,205
2018-07-27T10:13:38.984Z,205
2018-07-27T10:14:48.134Z,205
2018-07-27T10:15:57.103Z,205
2018-07-27T10:17:05.972Z,205
2018-07-27T10:18:14.843Z,210
2018-07-27T10:19:23.995Z,210
2018-07-27T10:20:32.868Z,210
2018-07-27T10:21:41.747Z,210
2018-07-27T10:22:50.611Z,210
2018-07-27T10:23:59.485Z,210
2018-07-27T10:25:08.351Z,210
2018-07-27T10:26:17.224Z,210
2018-07-27T10:27:26.091Z,215
2018-07-27T10:28:34.961Z,210
2018-07-27T10:29:43.831Z,210
2018-07-27T10:30:52.702Z,210
2018-07-27T10:32:01.569Z,210
2018-07-27T10:33:10.567Z,215
2018-07-27T10:34:19.438Z,215
2018-07-27T10:35:28.307Z,215
2018-07-27T10:36:37.177Z,215
2018-07-27T10:37:46.046Z,215
2018-07-27T10:38:54.913Z,215
2018-07-27T10:40:04.613Z,215
2018-07-27T10:41:13.783Z,220
2018-07-27T10:42:22.926Z,220
2018-07-27T10:43:31.795Z,220
2018-07-27T10:44:41.013Z,220
2018-07-27T10:45:49.881Z,220
2018-07-27T10:46:59.028Z,220
2018-07-27T10:48:07.897Z,220
2018-07-27T10:49:17.048Z,220
2018-07-27T10:50:25.915Z,220
2018-07-27T10:51:34.784Z,225
2018-07-27T10:52:43.937Z,225
2018-07-27T10:53:52.807Z,225
2018-07-27T10:55:01.682Z,225
2018-07-27T10:56:10.550Z,220
2018-07-27T10:57:19.418Z,230
2018-07-27T10:58:28.293Z,230
2018-07-27T10:59:37.437Z,230
2018-07-27T11:00:46.583Z,230
2018-07-27T11:01:55.606Z,235
2018-07-27T11:03:04.474Z,235
2018-07-27T11:04:13.342Z,235
2018-07-27T11:05:22.209Z,235
2018-07-27T11:06:31.079Z,240
2018-07-27T11:07:40.377Z,240
2018-07-27T11:08:49.935Z,245
2018-07-27T11:09:59.170Z,250
2018-07-27T11:11:08.089Z,240
2018-07-27T11:12:16.959Z,240
2018-07-27T11:13:25.828Z,245
2018-07-27T11:14:34.696Z,250
2018-07-27T11:15:43.565Z,255
2018-07-27T11:16:52.433Z,255
2018-07-27T11:18:01.310Z,255
2018-07-27T11:19:10.275Z,260
2018-07-27T11:20:19.144Z,255
2018-07-27T11:21:28.015Z,255
2018-07-27T11:22:36.883Z,255
2018-07-27T11:23:45.756Z,260
2018-07-27T11:24:54.631Z,260
2018-07-27T11:26:03.504Z,265
2018-07-27T11:27:12.474Z,265
2018-07-27T11:28:21.484Z,270
2018-07-27T11:29:30.385Z,275
2018-07-27T11:30:39.634Z,275
2018-07-27T11:31:48.795Z,275
2018-07-27T11:32:57.785Z,280
2018-07-27T11:34:06.671Z,285
2018-07-27T11:35:15.586Z,285
2018-07-27T11:36:24.463Z,290
2018-07-27T11:37:33.843Z,290
2018-07-27T11:38:43.067Z,290
2018-07-27T11:39:52.019Z,290
2018-07-27T11:41:00.981Z,295
2018-07-27T11:42:10.444Z,305
2018-07-27T11:43:19.382Z,300
2018-07-27T11:44:28.288Z,305
2018-07-27T11:45:37.214Z,310
2018-07-27T11:46:46.175Z,315
2018-07-27T11:47:55.126Z,315
2018-07-27T11:49:04.054Z,315
2018-07-27T11:50:12.942Z,320
2018-07-27T11:51:21.967Z,320
2018-07-27T11:52:30.838Z,325
2018-07-27T11:53:39.923Z,335
2018-07-27T11:54:48.811Z,340
2018-07-27T11:55:58.066Z,345
2018-07-27T11:57:06.980Z,355
2018-07-27T11:58:16.232Z,365
2018-07-27T11:59:25.172Z,385
2018-07-27T12:00:34.387Z,840
2018-07-27T12:01:44.168Z,2445
2018-07-27T12:02:53.500Z,2965
2018-07-27T12:04:02.414Z,3020
2018-07-27T12:05:11.524Z,3065
2018-07-27T12:06:20.439Z,3000
2018-07-27T12:07:29.356Z,2865
2018-07-27T12:08:38.366Z,2885
2018-07-27T12:09:47.268Z,2855
2018-07-27T12:10:56.244Z,2810
2018-07-27T12:12:05.131Z,3130
2018-07-27T12:13:14.446Z,3035
2018-07-27T12:14:23.651Z,3165
2018-07-27T12:15:32.344Z,2995
2018-07-27T12:16:41.275Z,3075
2018-07-27T12:17:50.239Z,2945
2018-07-27T12:18:59.164Z,3435
2018-07-27T12:20:08.095Z,3575
2018-07-27T12:21:17.516Z,3360
2018-07-27T12:22:26.669Z,3205
2018-07-27T12:23:35.620Z,3275
2018-07-27T12:24:44.532Z,3180
2018-07-27T12:25:53.745Z,3465
2018-07-27T12:27:02.720Z,3245
2018-07-27T12:28:11.664Z,3030
2018-07-27T12:29:20.850Z,3175
2018-07-27T12:30:29.898Z,3270
2018-07-27T12:31:38.847Z,3475
2018-07-27T12:32:48.852Z,3340
2018-07-27T12:33:58.389Z,3485
2018-07-27T12:35:07.337Z,3330
2018-07-27T12:36:16.215Z,3465
2018-07-27T12:37:25.162Z,3465
2018-07-27T12:38:34.147Z,3405
2018-07-27T12:39:43.220Z,3415
2018-07-27T12:40:52.121Z,3595
2018-07-27T12:42:01.079Z,3525
2018-07-27T12:43:10.004Z,3375
2018-07-27T12:44:19.247Z,3310
2018-07-27T12:45:28.181Z,3395
2018-07-27T12:46:37.465Z,3315
2018-07-27T12:47:46.404Z,3355
2018-07-27T12:48:55.372Z,3115
2018-07-27T12:50:04.254Z,1140
2018-07-27T12:51:13.401Z,3530
2018-07-27T12:52:22.259Z,3205
2018-07-27T12:53:31.189Z,3195
2018-07-27T12:54:40.102Z,3425
2018-07-27T12:55:49.075Z,3605
2018-07-27T12:56:58.112Z,3565
2018-07-27T12:58:07.025Z,3275
2018-07-27T12:59:15.950Z,3200
2018-07-27T13:00:25.175Z,3340
2018-07-27T13:01:34.102Z,3545
2018-07-27T13:02:43.310Z,3355
2018-07-27T13:03:52.231Z,3595
2018-07-27T13:05:01.161Z,3175
2018-07-27T13:06:10.184Z,3505
2018-07-27T13:07:19.124Z,3480
2018-07-27T13:08:28.110Z,3325
2018-07-27T13:09:37.065Z,3535
2018-07-27T13:10:46.714Z,3595
2018-07-27T13:11:55.585Z,3665
2018-07-27T13:13:05.067Z,3350
2018-07-27T13:14:14.178Z,3360
2018-07-27T13:15:23.081Z,3570
2018-07-27T13:16:32.269Z,3605
2018-07-27T13:17:41.200Z,3520
2018-07-27T13:18:50.400Z,3460
2018-07-27T13:19:59.674Z,3245
2018-07-27T13:21:09.009Z,3470
2018-07-27T13:22:18.036Z,3330
2018-07-27T13:23:26.844Z,3615
2018-07-27T13:25:02.917Z,1190
2018-07-27T13:26:27.219Z,3200
2018-07-27T13:27:36.141Z,1570
2018-07-27T13:28:45.367Z,3345
2018-07-27T13:29:54.319Z,3730
2018-07-27T13:31:03.445Z,3585
2018-07-27T13:32:12.368Z,3385
2018-07-27T13:33:21.313Z,3575
2018-07-27T13:34:30.273Z,3430
2018-07-27T13:36:48.524Z,3480
2018-07-27T13:37:57.454Z,3410
2018-07-27T13:39:06.411Z,3485
2018-07-27T13:40:15.362Z,3480
2018-07-27T13:41:24.361Z,3750
2018-07-27T13:42:33.401Z,3820
2018-07-27T13:43:42.364Z,3575
2018-07-27T13:44:51.592Z,3650
2018-07-27T13:46:00.565Z,3685
2018-07-27T13:47:09.464Z,3505
2018-07-27T13:48:18.814Z,3585
2018-07-27T13:49:27.696Z,3775
2018-07-27T13:50:36.619Z,3785
2018-07-27T13:51:45.538Z,3440
2018-07-27T13:52:54.759Z,3510
2018-07-27T13:54:03.633Z,3575
2018-07-27T13:55:12.833Z,3775
2018-07-27T13:56:21.752Z,3540
2018-07-27T13:57:30.754Z,3480
2018-07-27T13:58:39.949Z,1930
2018-07-27T13:59:48.936Z,3665
2018-07-27T14:00:58.119Z,680
2018-07-27T14:02:07.045Z,665
2018-07-27T14:03:16.221Z,3615
2018-07-27T14:04:25.174Z,3515
2018-07-27T14:05:34.460Z,3510
2018-07-27T14:06:43.914Z,3740
2018-07-27T14:07:52.850Z,3785
2018-07-27T14:09:01.760Z,3635
2018-07-27T14:10:10.664Z,3355
2018-07-27T14:11:20.002Z,3475
2018-07-27T14:12:28.955Z,3600
2018-07-27T14:13:37.873Z,3560
2018-07-27T14:14:46.812Z,3470
2018-07-27T14:15:55.728Z,1535
2018-07-27T14:17:04.654Z,2680
2018-07-27T14:18:13.588Z,3345
2018-07-27T14:19:22.807Z,3785
2018-07-27T14:20:31.720Z,3860
2018-07-27T14:21:40.801Z,2340
2018-07-27T14:22:49.691Z,1350
2018-07-27T14:23:58.590Z,2975
2018-07-27T14:25:07.783Z,790
2018-07-27T14:26:16.718Z,985
2018-07-27T14:27:25.656Z,825
2018-07-27T14:28:34.607Z,1620
2018-07-27T14:29:43.545Z,3545
2018-07-27T14:30:52.457Z,3635
2018-07-27T14:32:01.418Z,3525
2018-07-27T14:33:10.314Z,3670
2018-07-27T14:34:19.251Z,3730
2018-07-27T14:35:28.144Z,3700
2018-07-27T14:36:37.225Z,3425
2018-07-27T14:37:46.215Z,865
2018-07-27T14:38:55.767Z,840
2018-07-27T14:40:04.760Z,930
2018-07-27T14:41:13.948Z,710
2018-07-27T14:42:22.872Z,3495
2018-07-27T14:43:31.774Z,3555
2018-07-27T14:44:40.699Z,3380
2018-07-27T14:45:50.025Z,3515
2018-07-27T14:46:58.928Z,3555
2018-07-27T14:48:08.131Z,3500
2018-07-27T14:49:17.336Z,3565
2018-07-27T14:50:26.562Z,3570
2018-07-27T14:51:35.443Z,3500
2018-07-27T14:52:44.956Z,3545
2018-07-27T14:53:53.758Z,3290
2018-07-27T14:55:02.941Z,3175
2018-07-27T14:56:12.143Z,3335
2018-07-27T14:57:21.379Z,1285
2018-07-27T14:58:30.338Z,680
2018-07-27T14:59:39.236Z,740
2018-07-27T15:00:48.476Z,2750
2018-07-27T15:01:57.347Z,3095
2018-07-27T15:03:06.266Z,3225
2018-07-27T15:04:15.742Z,3385
2018-07-27T15:05:24.971Z,3330
2018-07-27T15:06:33.885Z,3495
2018-07-27T15:07:42.804Z,3465
2018-07-27T15:08:51.704Z,3415
2018-07-27T15:10:00.652Z,3250
2018-07-27T15:11:09.536Z,3125
2018-07-27T15:12:18.459Z,3185
2018-07-27T15:13:27.348Z,3265
2018-07-27T15:14:36.434Z,3130
2018-07-27T15:15:45.345Z,3210
2018-07-27T15:16:54.270Z,3260
2018-07-27T15:18:03.171Z,3130
2018-07-27T15:19:12.376Z,3115
2018-07-27T15:20:21.433Z,3280
2018-07-27T15:21:30.636Z,2950
2018-07-27T15:22:39.519Z,2975
2018-07-27T15:23:48.467Z,3145
2018-07-27T15:24:57.373Z,3025
2018-07-27T15:26:06.648Z,585
2018-07-27T15:27:15.534Z,2025
2018-07-27T15:28:24.481Z,2655
2018-07-27T15:29:33.385Z,2955
2018-07-27T15:30:42.308Z,2860
2018-07-27T15:31:51.363Z,2980
2018-07-27T15:33:00.561Z,2935
2018-07-27T15:34:09.465Z,2780
2018-07-27T15:35:18.688Z,2980
2018-07-27T15:36:27.588Z,3140
2018-07-27T15:37:36.863Z,1565
2018-07-27T15:38:46.052Z,760
2018-07-27T15:39:54.977Z,660
2018-07-27T15:41:04.172Z,630
2018-07-27T15:42:13.146Z,745
2018-07-27T15:43:22.127Z,515
2018-07-27T15:44:31.333Z,475
2018-07-27T15:45:40.599Z,500
2018-07-27T15:46:49.782Z,540
2018-07-27T15:47:59.036Z,595
2018-07-27T15:49:08.638Z,2540
2018-07-27T15:50:17.544Z,2560
2018-07-27T15:51:26.527Z,2605
2018-07-27T15:52:35.436Z,2675
2018-07-27T15:53:44.372Z,2475
2018-07-27T15:54:53.636Z,2335
2018-07-27T15:56:02.601Z,2545
2018-07-27T15:57:11.509Z,1380
2018-07-27T15:58:20.447Z,940
2018-07-27T15:59:29.378Z,550
2018-07-27T16:00:38.358Z,505
2018-07-27T16:01:47.286Z,460
2018-07-27T16:02:56.467Z,430
2018-07-27T16:04:05.738Z,410
2018-07-27T16:05:14.614Z,410
2018-07-27T16:06:23.642Z,430